Petropolis, Brazil
Current Conditions -  °F | °C
As of 9:00 PM on Saturday 25 Oct 2014 (Local Time) from SBGL Reporting Station
Broken Clouds Broken Clouds  
Wind Chill: 75°   Ceiling: 10000
Heat Index: 75°   Visibility: 6mi
Dew Point: 63°   Wind: 7mph
Humidity: 65%   Direction: 230°SW
Pressure: 29.94"   Gusts: NA
Location:  22.51°S, 43.2°W
Report Text: SBGL 252300Z 23006KT 9999 SCT030 BKN100 24/17 Q1014
Loading
Personal Weather Stations






























Interactive Weather Map
Tropical Storm Tracking
New forecast layout! Learn more

10-Day Weather Forecast

Advertisements
Track Severe Weather on mobile